createdAt,value
2018-12-20T00:01:23.559Z,39.62
2018-12-20T00:03:51.164Z,39.66
2018-12-20T00:06:18.825Z,39.66
2018-12-20T00:08:46.329Z,39.52
2018-12-20T00:11:15.072Z,39.45
2018-12-20T00:13:42.692Z,39.64
2018-12-20T00:16:10.297Z,39.83
2018-12-20T00:18:37.918Z,39.72
2018-12-20T00:21:05.517Z,39.49
2018-12-20T00:23:33.064Z,39.84
2018-12-20T00:26:00.553Z,39.62
2018-12-20T00:28:28.015Z,40.02
2018-12-20T00:30:55.456Z,40.03
2018-12-20T00:33:23.117Z,39.58
2018-12-20T00:35:50.696Z,39.57
2018-12-20T00:38:18.287Z,39.52
2018-12-20T00:40:45.849Z,39.89
2018-12-20T00:43:13.412Z,39.70
2018-12-20T00:45:41.333Z,39.95
2018-12-20T00:48:08.882Z,39.99
2018-12-20T00:50:36.444Z,39.80
2018-12-20T00:53:04.503Z,40.05
2018-12-20T00:55:32.192Z,39.52
2018-12-20T00:57:59.778Z,39.96
2018-12-20T01:00:27.389Z,39.79
2018-12-20T01:02:55.398Z,39.96
2018-12-20T01:05:23.251Z,39.85
2018-12-20T01:07:50.860Z,39.49
2018-12-20T01:10:18.538Z,39.54
2018-12-20T01:12:46.078Z,39.61
2018-12-20T01:15:13.596Z,40.09
2018-12-20T01:17:41.301Z,40.13
2018-12-20T01:20:09.432Z,40.02
2018-12-20T01:22:36.983Z,39.62
2018-12-20T01:25:05.639Z,39.63
2018-12-20T01:27:33.351Z,39.97
2018-12-20T01:30:00.879Z,39.97
2018-12-20T01:32:28.645Z,39.90
2018-12-20T01:34:56.297Z,40.08
2018-12-20T01:37:23.792Z,39.87
2018-12-20T01:39:51.405Z,40.11
2018-12-20T01:42:18.932Z,39.87
2018-12-20T01:44:53.337Z,40.05
2018-12-20T01:47:16.022Z,40.05
2018-12-20T01:49:43.557Z,39.62
2018-12-20T01:52:11.037Z,39.70
2018-12-20T01:54:38.659Z,39.51
2018-12-20T01:57:06.202Z,40.04
2018-12-20T01:59:33.774Z,39.57
2018-12-20T02:02:01.492Z,39.91
2018-12-20T02:04:29.201Z,40.13
2018-12-20T02:06:56.941Z,39.61
2018-12-20T02:09:24.592Z,40.14
2018-12-20T02:11:52.388Z,40.02
2018-12-20T02:14:19.967Z,39.77
2018-12-20T02:16:47.495Z,39.59
2018-12-20T02:19:15.039Z,40.01
2018-12-20T02:21:42.652Z,39.83
2018-12-20T02:24:10.446Z,39.76
2018-12-20T02:26:38.112Z,40.06
2018-12-20T02:29:05.845Z,39.55
2018-12-20T02:31:33.581Z,39.71
2018-12-20T02:34:01.368Z,40.15
2018-12-20T02:36:29.236Z,39.74
2018-12-20T02:38:57.009Z,39.97
2018-12-20T02:41:24.735Z,40.06
2018-12-20T02:43:52.468Z,40.00
2018-12-20T02:46:20.057Z,39.74
2018-12-20T02:48:47.968Z,39.75
2018-12-20T02:51:15.517Z,40.14
2018-12-20T02:53:43.060Z,39.98
2018-12-20T02:56:10.522Z,39.50
2018-12-20T02:58:38.169Z,39.71
2018-12-20T03:01:05.706Z,39.99
2018-12-20T03:03:33.191Z,39.80
2018-12-20T03:06:00.682Z,39.92
2018-12-20T03:08:28.169Z,40.21
2018-12-20T03:10:55.851Z,39.57
2018-12-20T03:13:23.379Z,39.80
2018-12-20T03:15:51.226Z,39.59
2018-12-20T03:18:18.807Z,39.82
2018-12-20T03:20:46.443Z,40.12
2018-12-20T03:23:14.402Z,39.87
2018-12-20T03:25:41.911Z,40.07
2018-12-20T03:28:09.690Z,39.92
2018-12-20T03:30:37.399Z,39.59
2018-12-20T03:33:05.491Z,39.76
2018-12-20T03:35:33.384Z,39.81
2018-12-20T03:38:00.963Z,39.61
2018-12-20T03:40:28.447Z,39.36
2018-12-20T03:42:55.927Z,40.07
2018-12-20T03:45:28.685Z,39.51
2018-12-20T03:47:53.104Z,39.85
2018-12-20T03:50:20.809Z,39.76
2018-12-20T03:52:48.497Z,39.85
2018-12-20T03:55:16.093Z,39.95
2018-12-20T03:57:43.793Z,39.56
2018-12-20T04:00:11.541Z,40.15
2018-12-20T04:02:39.124Z,39.91
2018-12-20T04:05:06.639Z,39.55
2018-12-20T04:07:34.191Z,40.06
2018-12-20T04:10:01.723Z,39.66
2018-12-20T04:12:30.336Z,39.76
2018-12-20T04:14:58.065Z,40.04
2018-12-20T04:17:25.901Z,40.14
2018-12-20T04:19:53.636Z,39.84
2018-12-20T04:22:21.428Z,40.04
2018-12-20T04:24:49.080Z,40.16
2018-12-20T04:27:16.815Z,39.95
2018-12-20T04:29:44.668Z,40.15
2018-12-20T04:32:12.281Z,40.17
2018-12-20T04:34:39.926Z,39.84
2018-12-20T04:37:07.623Z,40.08
2018-12-20T04:39:35.132Z,40.21
2018-12-20T04:42:02.578Z,39.96
2018-12-20T04:44:30.207Z,39.97
2018-12-20T04:46:59.595Z,39.90
2018-12-20T04:49:27.234Z,40.11
2018-12-20T04:51:54.705Z,39.78
2018-12-20T04:54:22.293Z,39.64
2018-12-20T04:56:49.946Z,39.67
2018-12-20T04:59:17.469Z,40.17
2018-12-20T05:01:45.241Z,40.04
2018-12-20T05:04:12.879Z,40.09
2018-12-20T05:06:40.612Z,40.06
2018-12-20T05:09:09.198Z,39.76
2018-12-20T05:11:36.656Z,39.62
2018-12-20T05:14:04.149Z,39.74
2018-12-20T05:16:31.721Z,39.38
2018-12-20T05:18:59.282Z,40.06
2018-12-20T05:21:27.070Z,40.08
2018-12-20T05:23:54.688Z,39.64
2018-12-20T05:26:22.550Z,40.09
2018-12-20T05:28:50.199Z,39.77
2018-12-20T05:31:17.669Z,39.65
2018-12-20T05:33:45.224Z,39.97
2018-12-20T05:36:12.757Z,39.74
2018-12-20T05:38:40.347Z,39.99
2018-12-20T05:41:07.834Z,40.22
2018-12-20T05:43:35.851Z,39.83
2018-12-20T05:46:04.622Z,40.18
2018-12-20T05:48:32.525Z,39.64
2018-12-20T05:51:00.251Z,40.08
2018-12-20T05:53:30.240Z,39.92
2018-12-20T05:55:58.001Z,39.98
2018-12-20T05:58:25.772Z,39.55
2018-12-20T06:00:53.417Z,39.34
2018-12-20T06:03:20.898Z,39.71
2018-12-20T06:05:48.964Z,39.98
2018-12-20T06:08:16.510Z,39.81
2018-12-20T06:10:43.988Z,39.58
2018-12-20T06:13:11.549Z,40.20
2018-12-20T06:15:39.254Z,40.07
2018-12-20T06:18:06.800Z,39.85
2018-12-20T06:20:34.370Z,39.99
2018-12-20T06:23:02.199Z,40.11
2018-12-20T06:25:29.732Z,39.85
2018-12-20T06:27:57.290Z,39.43
2018-12-20T06:30:24.751Z,40.00
2018-12-20T06:32:52.220Z,39.69
2018-12-20T06:35:19.798Z,39.72
2018-12-20T06:37:47.270Z,39.90
2018-12-20T06:40:16.441Z,40.00
2018-12-20T06:42:44.096Z,39.91
2018-12-20T06:45:11.571Z,40.11
2018-12-20T06:47:39.095Z,39.70
2018-12-20T06:50:07.571Z,39.68
2018-12-20T06:52:35.041Z,39.27
2018-12-20T06:55:02.528Z,39.53
2018-12-20T06:57:30.045Z,40.23
2018-12-20T06:59:57.534Z,40.21
2018-12-20T07:02:25.035Z,40.16
2018-12-20T07:04:52.568Z,40.33
2018-12-20T07:07:20.017Z,40.49
2018-12-20T07:09:47.731Z,39.99
2018-12-20T07:12:15.193Z,40.22
2018-12-20T07:14:42.759Z,40.10
2018-12-20T07:17:10.346Z,40.49
2018-12-20T07:19:37.815Z,40.38
2018-12-20T07:22:05.295Z,40.07
2018-12-20T07:24:32.756Z,40.03
2018-12-20T07:27:00.255Z,40.17
2018-12-20T07:29:27.799Z,40.61
2018-12-20T07:31:55.248Z,40.51
2018-12-20T07:34:22.714Z,40.32
2018-12-20T07:36:50.172Z,40.28
2018-12-20T07:39:17.671Z,40.51
2018-12-20T07:41:45.185Z,40.38
2018-12-20T07:44:12.659Z,40.79
2018-12-20T07:46:40.190Z,40.74
2018-12-20T07:49:07.632Z,40.85
2018-12-20T07:51:35.087Z,40.48
2018-12-20T07:54:02.583Z,41.06
2018-12-20T07:56:30.156Z,41.26
2018-12-20T07:58:57.632Z,40.71
2018-12-20T08:01:25.134Z,40.83
2018-12-20T08:03:52.574Z,41.25
2018-12-20T08:06:20.034Z,40.75
2018-12-20T08:08:47.503Z,41.18
2018-12-20T08:11:15.160Z,40.83
2018-12-20T08:13:42.691Z,41.30
2018-12-20T08:16:10.147Z,41.12
2018-12-20T08:18:37.640Z,41.45
2018-12-20T08:21:05.207Z,41.16
2018-12-20T08:23:32.744Z,41.33
2018-12-20T08:26:00.207Z,41.00
2018-12-20T08:28:27.664Z,41.00
2018-12-20T08:30:55.140Z,40.71
2018-12-20T08:33:23.264Z,40.56
2018-12-20T08:35:50.756Z,40.51
2018-12-20T08:38:18.240Z,40.97
2018-12-20T08:40:45.709Z,40.31
2018-12-20T08:43:13.161Z,40.41
2018-12-20T08:45:40.725Z,40.71
2018-12-20T08:48:08.172Z,40.66
2018-12-20T08:50:35.625Z,40.75
2018-12-20T08:53:03.201Z,40.75
2018-12-20T08:56:34.726Z,40.62
2018-12-20T08:59:04.148Z,40.88
2018-12-20T09:01:32.200Z,40.53
2018-12-20T09:04:00.313Z,40.54
2018-12-20T09:06:36.107Z,40.84
2018-12-20T09:09:04.905Z,40.90
2018-12-20T09:11:35.146Z,40.91
2018-12-20T09:14:03.443Z,40.78
2018-12-20T09:16:33.911Z,40.64
2018-12-20T09:19:02.947Z,41.17
2018-12-20T09:21:33.524Z,40.98
2018-12-20T09:24:03.328Z,40.90
2018-12-20T09:26:31.449Z,41.34
2018-12-20T09:29:00.309Z,41.29
2018-12-20T09:31:30.571Z,40.95
2018-12-20T09:34:03.290Z,41.04
2018-12-20T09:36:35.438Z,41.02
2018-12-20T09:39:07.381Z,41.54
2018-12-20T09:41:38.195Z,41.55
2018-12-20T09:44:10.249Z,41.02
2018-12-20T09:46:40.245Z,41.08
2018-12-20T09:49:11.251Z,41.69
2018-12-20T09:51:45.633Z,41.20
2018-12-20T09:54:15.926Z,41.57
2018-12-20T09:56:54.830Z,41.56
2018-12-20T09:59:25.270Z,41.30
2018-12-20T10:01:57.064Z,41.26
2018-12-20T10:04:29.921Z,41.07
2018-12-20T10:06:59.608Z,41.21
2018-12-20T10:09:31.519Z,41.17
2018-12-20T10:12:04.020Z,41.24
2018-12-20T10:14:35.196Z,41.62
2018-12-20T10:17:19.870Z,41.01
2018-12-20T10:19:52.798Z,41.44
2018-12-20T10:22:23.310Z,41.13
2018-12-20T10:24:54.763Z,41.19
2018-12-20T10:27:31.397Z,41.25
2018-12-20T10:29:57.721Z,41.05
2018-12-20T10:32:30.531Z,40.78
2018-12-20T10:35:06.468Z,41.21
2018-12-20T10:37:39.302Z,40.89
2018-12-20T10:40:08.634Z,41.25
2018-12-20T10:42:38.060Z,40.96
2018-12-20T10:45:07.879Z,40.89
2018-12-20T10:47:37.534Z,40.99
2018-12-20T10:50:07.025Z,41.01
2018-12-20T10:52:39.988Z,40.93
2018-12-20T10:55:08.254Z,41.35
2018-12-20T10:57:35.703Z,41.18
2018-12-20T11:00:03.218Z,41.35
2018-12-20T11:02:36.126Z,41.45
2018-12-20T11:05:07.870Z,41.06
2018-12-20T11:07:40.863Z,41.22
2018-12-20T11:10:14.114Z,41.24
2018-12-20T11:12:46.996Z,41.54
2018-12-20T11:15:14.454Z,41.24
2018-12-20T11:17:41.971Z,41.69
2018-12-20T11:20:09.530Z,41.15
2018-12-20T11:22:37.092Z,41.66
2018-12-20T11:25:04.672Z,41.55
2018-12-20T11:27:32.123Z,41.55
2018-12-20T11:29:59.603Z,41.81
2018-12-20T11:32:27.143Z,41.28
2018-12-20T11:34:54.624Z,41.31
2018-12-20T11:37:22.074Z,41.58
2018-12-20T11:39:49.523Z,41.73
2018-12-20T11:42:17.110Z,41.38
2018-12-20T11:44:44.557Z,41.21
2018-12-20T11:47:17.470Z,41.29
2018-12-20T11:49:44.923Z,41.64
2018-12-20T11:52:12.364Z,41.57
2018-12-20T11:54:39.887Z,41.21
2018-12-20T11:57:07.321Z,41.40
2018-12-20T11:59:34.782Z,41.44
2018-12-20T12:02:02.263Z,41.07
2018-12-20T12:04:29.739Z,41.06
2018-12-20T12:06:57.309Z,41.58
2018-12-20T12:09:24.831Z,41.20
2018-12-20T12:11:52.284Z,41.09
2018-12-20T12:14:19.827Z,41.43
2018-12-20T12:16:47.399Z,41.13
2018-12-20T12:19:15.003Z,41.63
2018-12-20T12:21:42.466Z,41.63
2018-12-20T12:24:09.927Z,41.97
2018-12-20T12:26:37.517Z,41.53
2018-12-20T12:29:05.116Z,41.72
2018-12-20T12:31:32.599Z,41.17
2018-12-20T12:34:00.138Z,41.59
2018-12-20T12:36:27.650Z,41.24
2018-12-20T12:38:55.151Z,41.43
2018-12-20T12:41:22.632Z,41.31
2018-12-20T12:43:51.024Z,41.47
2018-12-20T12:46:18.823Z,41.22
2018-12-20T12:48:46.265Z,41.11
2018-12-20T12:51:13.791Z,40.38
2018-12-20T12:53:41.259Z,40.89
2018-12-20T12:56:08.780Z,40.74
2018-12-20T12:58:36.312Z,40.56
2018-12-20T13:01:03.865Z,40.58
2018-12-20T13:03:31.307Z,40.23
2018-12-20T13:05:58.914Z,40.38
2018-12-20T13:08:26.362Z,40.50
2018-12-20T13:10:53.818Z,40.78
2018-12-20T13:13:21.373Z,40.23
2018-12-20T13:15:50.882Z,40.72
2018-12-20T13:18:18.369Z,40.63
2018-12-20T13:20:45.822Z,40.43
2018-12-20T13:23:13.383Z,40.71
2018-12-20T13:25:40.875Z,40.83
2018-12-20T13:28:08.444Z,40.74
2018-12-20T13:30:36.100Z,40.72
2018-12-20T13:33:03.583Z,40.36
2018-12-20T13:35:31.038Z,40.46
2018-12-20T13:37:58.505Z,40.72
2018-12-20T13:40:25.936Z,40.45
2018-12-20T13:42:53.418Z,40.41
2018-12-20T13:45:20.870Z,40.63
2018-12-20T13:47:48.319Z,40.78
2018-12-20T13:50:15.847Z,40.19
2018-12-20T13:52:43.407Z,40.74
2018-12-20T13:55:10.892Z,40.34
2018-12-20T13:57:38.355Z,40.37
2018-12-20T14:00:06.860Z,40.65
2018-12-20T14:02:34.320Z,40.74
2018-12-20T14:05:01.819Z,40.84
2018-12-20T14:07:29.318Z,40.37
2018-12-20T14:09:56.759Z,40.35
2018-12-20T14:12:24.222Z,40.79
2018-12-20T14:14:51.671Z,40.77
2018-12-20T14:17:19.238Z,40.26
2018-12-20T14:19:46.729Z,40.26
2018-12-20T14:22:14.187Z,40.51
2018-12-20T14:24:41.708Z,40.14
2018-12-20T14:27:09.209Z,40.27
2018-12-20T14:29:36.666Z,40.22
2018-12-20T14:32:04.203Z,40.61
2018-12-20T14:34:31.684Z,40.48
2018-12-20T14:37:02.248Z,40.23
2018-12-20T14:39:29.729Z,40.69
2018-12-20T14:41:57.209Z,40.39
2018-12-20T14:44:24.663Z,40.24
2018-12-20T14:46:52.117Z,40.45
2018-12-20T14:49:19.656Z,40.47
2018-12-20T14:51:48.136Z,40.57
2018-12-20T14:54:16.695Z,40.04
2018-12-20T14:56:44.173Z,40.61
2018-12-20T14:59:11.968Z,40.60
2018-12-20T15:01:39.431Z,40.18
2018-12-20T15:04:06.877Z,40.57
2018-12-20T15:06:34.331Z,40.24
2018-12-20T15:09:01.921Z,40.24
2018-12-20T15:11:29.427Z,40.69
2018-12-20T15:13:56.913Z,40.40
2018-12-20T15:16:24.424Z,40.59
2018-12-20T15:18:52.008Z,40.03
2018-12-20T15:21:19.452Z,40.33
2018-12-20T15:23:46.934Z,40.12
2018-12-20T15:26:14.416Z,40.34
2018-12-20T15:28:42.688Z,40.51
2018-12-20T15:31:10.143Z,40.46
2018-12-20T15:33:37.616Z,40.46
2018-12-20T15:36:05.077Z,40.15
2018-12-20T15:38:32.610Z,40.25
2018-12-20T15:41:01.990Z,40.50
2018-12-20T15:43:29.550Z,40.46
2018-12-20T15:45:57.020Z,40.42
2018-12-20T15:48:24.465Z,40.46
2018-12-20T15:50:52.045Z,40.53
2018-12-20T15:53:19.552Z,40.14
2018-12-20T15:55:47.015Z,40.25
2018-12-20T15:58:14.607Z,40.69
2018-12-20T16:00:42.104Z,40.79
2018-12-20T16:03:09.595Z,40.58
2018-12-20T16:05:37.091Z,41.12
2018-12-20T16:08:06.633Z,40.93
2018-12-20T16:10:34.140Z,41.20
2018-12-20T16:13:01.637Z,41.53
2018-12-20T16:15:29.197Z,41.25
2018-12-20T16:17:56.679Z,41.16
2018-12-20T16:20:24.146Z,41.16
2018-12-20T16:22:51.596Z,41.63
2018-12-20T16:25:19.061Z,41.26
2018-12-20T16:27:46.544Z,41.45
2018-12-20T16:30:14.008Z,41.99
2018-12-20T16:32:41.458Z,42.06
2018-12-20T16:35:08.962Z,41.94
2018-12-20T16:37:36.408Z,42.20
2018-12-20T16:40:04.601Z,41.72
2018-12-20T16:42:32.179Z,41.83
2018-12-20T16:44:59.647Z,41.83
2018-12-20T16:47:27.112Z,42.40
2018-12-20T16:49:54.655Z,41.96
2018-12-20T16:52:22.130Z,42.27
2018-12-20T16:54:49.582Z,42.08
2018-12-20T16:57:17.048Z,41.87
2018-12-20T16:59:44.605Z,42.19
2018-12-20T17:02:12.100Z,41.90
2018-12-20T17:04:39.580Z,42.40
2018-12-20T17:07:07.176Z,42.25
2018-12-20T17:09:34.805Z,41.97
2018-12-20T17:12:02.291Z,42.16
2018-12-20T17:14:29.841Z,42.53
2018-12-20T17:16:57.373Z,42.37
2018-12-20T17:19:24.829Z,42.34
2018-12-20T17:21:52.268Z,42.48
2018-12-20T17:24:19.730Z,42.26
2018-12-20T17:26:47.270Z,42.36
2018-12-20T17:29:14.761Z,42.49
2018-12-20T17:31:42.291Z,42.33
2018-12-20T17:34:09.797Z,42.35
2018-12-20T17:36:37.264Z,42.03
2018-12-20T17:39:06.190Z,42.24
2018-12-20T17:41:33.675Z,42.26
2018-12-20T17:44:01.139Z,42.48
2018-12-20T17:46:28.724Z,42.15
2018-12-20T17:48:56.312Z,42.42
2018-12-20T17:51:23.817Z,42.09
2018-12-20T17:53:51.280Z,42.23
2018-12-20T17:56:18.804Z,42.15
2018-12-20T17:58:46.421Z,41.87
2018-12-20T18:01:13.896Z,42.25
2018-12-20T18:03:41.413Z,42.48
2018-12-20T18:06:08.858Z,42.20
2018-12-20T18:08:36.325Z,41.86
2018-12-20T18:11:03.785Z,41.89
2018-12-20T18:13:31.229Z,41.69
2018-12-20T18:15:58.732Z,42.00
2018-12-20T18:18:26.220Z,42.09
2018-12-20T18:20:54.083Z,41.87
2018-12-20T18:23:21.565Z,41.97
2018-12-20T18:25:49.016Z,42.16
2018-12-20T18:28:16.449Z,41.25
2018-12-20T18:30:44.224Z,42.10
2018-12-20T18:33:11.926Z,41.60
2018-12-20T18:35:39.465Z,41.80
2018-12-20T18:38:06.933Z,41.96
2018-12-20T18:40:34.402Z,42.07
2018-12-20T18:43:01.928Z,42.04
2018-12-20T18:45:29.413Z,42.06
2018-12-20T18:47:56.889Z,41.86
2018-12-20T18:50:24.333Z,42.05
2018-12-20T18:52:51.834Z,41.60
2018-12-20T18:55:19.319Z,42.01
2018-12-20T18:57:46.772Z,41.62
2018-12-20T19:00:14.260Z,41.68
2018-12-20T19:02:41.753Z,41.52
2018-12-20T19:05:09.340Z,41.89
2018-12-20T19:07:36.899Z,41.59
2018-12-20T19:10:04.875Z,41.79
2018-12-20T19:12:42.715Z,41.92
2018-12-20T19:15:10.172Z,41.42
2018-12-20T19:17:37.657Z,41.19
2018-12-20T19:20:06.108Z,41.79
2018-12-20T19:22:33.811Z,41.78
2018-12-20T19:25:01.364Z,41.43
2018-12-20T19:27:28.947Z,41.47
2018-12-20T19:29:56.421Z,41.85
2018-12-20T19:32:23.975Z,41.91
2018-12-20T19:34:51.525Z,41.43
2018-12-20T19:37:19.086Z,40.94
2018-12-20T19:39:50.122Z,41.08
2018-12-20T19:42:17.946Z,41.82
2018-12-20T19:44:45.540Z,41.48
2018-12-20T19:47:15.016Z,41.74
2018-12-20T19:49:42.647Z,41.49
2018-12-20T19:52:10.168Z,41.78
2018-12-20T19:54:38.790Z,41.76
2018-12-20T19:57:06.266Z,41.41
2018-12-20T19:59:38.638Z,41.32
2018-12-20T20:02:05.312Z,41.24
2018-12-20T20:04:32.909Z,41.49
2018-12-20T20:07:00.368Z,41.25
2018-12-20T20:09:27.844Z,41.41
2018-12-20T20:11:57.411Z,41.56
2018-12-20T20:14:24.970Z,41.45
2018-12-20T20:16:52.463Z,41.72
2018-12-20T20:19:20.026Z,41.18
2018-12-20T20:21:47.567Z,41.25
2018-12-20T20:26:59.630Z,41.42
2018-12-20T20:29:27.365Z,41.10
2018-12-20T20:31:55.011Z,41.43
2018-12-20T20:34:22.469Z,41.29
2018-12-20T20:36:50.118Z,40.95
2018-12-20T20:39:17.674Z,41.28
2018-12-20T20:41:45.273Z,41.14
2018-12-20T20:44:12.755Z,40.74
2018-12-20T20:46:40.232Z,40.96
2018-12-20T20:49:07.738Z,41.58
2018-12-20T20:51:35.214Z,41.76
2018-12-20T20:54:02.735Z,41.83
2018-12-20T20:56:30.247Z,41.89
2018-12-20T20:58:57.732Z,41.92
2018-12-20T21:01:25.210Z,41.88
2018-12-20T21:03:52.705Z,41.55
2018-12-20T21:06:20.170Z,41.53
2018-12-20T21:08:47.611Z,41.47
2018-12-20T21:11:15.241Z,41.72
2018-12-20T21:13:42.901Z,41.85
2018-12-20T21:16:10.339Z,41.47
2018-12-20T21:18:37.833Z,41.71
2018-12-20T21:21:05.283Z,41.87
2018-12-20T21:23:32.738Z,41.78
2018-12-20T21:26:00.235Z,41.96
2018-12-20T21:28:27.884Z,42.07
2018-12-20T21:30:55.327Z,41.85
2018-12-20T21:33:22.810Z,42.09
2018-12-20T21:35:50.271Z,42.19
2018-12-20T21:38:17.918Z,41.96
2018-12-20T21:40:45.541Z,41.66
2018-12-20T21:43:13.008Z,41.85
2018-12-20T21:45:40.440Z,41.67
2018-12-20T21:48:07.889Z,42.21
2018-12-20T21:50:38.887Z,41.66
2018-12-20T21:53:04.905Z,42.13
2018-12-20T21:55:32.417Z,41.82
2018-12-20T21:57:59.996Z,42.43
2018-12-20T22:00:27.480Z,42.24
2018-12-20T22:02:54.948Z,42.49
2018-12-20T22:05:22.492Z,42.56
2018-12-20T22:07:49.980Z,42.47
2018-12-20T22:10:17.465Z,42.80
2018-12-20T22:12:45.006Z,42.74
2018-12-20T22:15:12.498Z,42.49
2018-12-20T22:17:40.761Z,42.52
2018-12-20T22:20:08.205Z,42.54
2018-12-20T22:22:35.719Z,43.04
2018-12-20T22:25:03.283Z,42.59
2018-12-20T22:27:30.831Z,42.77
2018-12-20T22:29:58.267Z,42.96
2018-12-20T22:32:25.733Z,42.79
2018-12-20T22:34:53.360Z,42.90
2018-12-20T22:37:21.005Z,42.42
2018-12-20T22:39:49.093Z,42.79
2018-12-20T22:42:16.675Z,42.46
2018-12-20T22:44:44.268Z,42.80
2018-12-20T22:47:11.835Z,42.90
2018-12-20T22:49:39.383Z,42.61
2018-12-20T22:52:06.858Z,42.44
2018-12-20T22:54:34.336Z,42.28
2018-12-20T22:57:01.820Z,42.34
2018-12-20T22:59:29.348Z,42.72
2018-12-20T23:01:57.000Z,42.48
2018-12-20T23:04:24.505Z,42.22
2018-12-20T23:06:52.020Z,42.37
2018-12-20T23:09:19.516Z,42.17
2018-12-20T23:11:47.009Z,42.31
2018-12-20T23:14:14.503Z,42.45
2018-12-20T23:16:41.964Z,42.75
2018-12-20T23:19:09.447Z,42.72
2018-12-20T23:21:37.091Z,42.40
2018-12-20T23:24:04.689Z,42.52
2018-12-20T23:26:32.136Z,42.62
2018-12-20T23:28:59.630Z,42.48
2018-12-20T23:31:27.075Z,42.54
2018-12-20T23:33:54.544Z,42.64
2018-12-20T23:36:22.037Z,42.43
2018-12-20T23:38:49.542Z,42.24
2018-12-20T23:41:17.375Z,42.69
2018-12-20T23:43:44.913Z,42.38
2018-12-20T23:46:12.409Z,42.36
2018-12-20T23:48:39.902Z,42.51
2018-12-20T23:51:13.434Z,42.39
2018-12-20T23:53:36.936Z,42.29
2018-12-20T23:56:04.425Z,42.35
2018-12-20T23:58:32.015Z,42.59
